Time;durP1;ratioP1;P1;durP2;ratioP2;P2;SDS_P1;SDS_P2;PMS_P1;PMS_P2;Temp;Humidity;BMP_temperature;BMP_pressure;BME280_temperature;BME280_humidity;BME280_pressure;Samples;Min_cycle;Max_cycle;Signal;HPM_P1;HPM_P2
2022/01/16 00:00:53;;;;;;;43.58;28.38;;;;;;;-3.50;100.00;96531.81;5012836;28;20030;-62
2022/01/16 00:06:02;;;;;;;37.97;26.90;;;;;;;-3.51;100.00;96519.84;5012696;28;20464;-63
2022/01/16 00:08:27;;;;;;;45.50;29.15;;;;;;;-3.47;100.00;96525.75;5013429;28;20030;-63
2022/01/16 00:10:53;;;;;;;43.05;28.20;;;;;;;-3.45;100.00;96529.97;5012625;28;20018;-62
2022/01/16 00:13:18;;;;;;;47.47;30.85;;;;;;;-3.46;100.00;96496.56;5012634;28;20454;-63
2022/01/16 00:15:44;;;;;;;45.67;31.75;;;;;;;-3.45;100.00;96478.47;5012250;28;20122;-63
2022/01/16 00:18:21;;;;;;;54.83;34.15;;;;;;;-3.45;100.00;96503.41;5011891;28;20049;-63
2022/01/16 00:20:47;;;;;;;45.83;29.65;;;;;;;-3.47;100.00;96524.03;5012387;28;20030;-63
2022/01/16 00:23:12;;;;;;;57.55;33.70;;;;;;;-3.46;100.00;96512.84;5012712;28;20105;-63
2022/01/16 00:25:37;;;;;;;49.60;33.63;;;;;;;-3.43;100.00;96506.78;5011827;28;20101;-63
2022/01/16 00:28:03;;;;;;;52.15;34.88;;;;;;;-3.40;100.00;96496.41;5005383;28;20029;-63
2022/01/16 00:30:29;;;;;;;49.03;29.83;;;;;;;-3.43;100.00;96534.25;5012382;28;20025;-63
2022/01/16 00:32:59;;;;;;;44.58;28.52;;;;;;;-3.45;100.00;96516.28;5010940;28;20025;-63
2022/01/16 00:35:25;;;;;;;42.88;25.80;;;;;;;-3.50;100.00;96505.25;5011383;28;20113;-62
2022/01/16 00:37:52;;;;;;;43.80;27.23;;;;;;;-3.53;100.00;96526.75;5011894;28;20549;-62
2022/01/16 00:40:18;;;;;;;44.95;27.92;;;;;;;-3.54;100.00;96530.19;5011775;28;20034;-63
2022/01/16 00:42:43;;;;;;;44.22;29.65;;;;;;;-3.57;100.00;96566.31;5012097;28;20025;-63
2022/01/16 00:45:09;;;;;;;38.53;26.30;;;;;;;-3.57;100.00;96548.28;5012117;28;20106;-63
2022/01/16 00:47:34;;;;;;;38.28;27.27;;;;;;;-3.58;100.00;96553.47;5012080;28;20595;-63
2022/01/16 00:49:59;;;;;;;38.88;27.60;;;;;;;-3.57;100.00;96513.97;5012153;28;20036;-63
2022/01/16 00:52:25;;;;;;;39.63;27.73;;;;;;;-3.58;100.00;96544.03;5012051;28;20072;-63
2022/01/16 00:54:50;;;;;;;44.65;29.55;;;;;;;-3.56;100.00;96536.25;5011958;28;20022;-63
2022/01/16 00:57:16;;;;;;;45.47;30.23;;;;;;;-3.54;100.00;96561.09;5011887;28;20067;-63
2022/01/16 00:59:41;;;;;;;44.17;32.25;;;;;;;-3.55;100.00;96533.66;5011995;28;20100;-63
2022/01/16 01:02:07;;;;;;;43.17;29.30;;;;;;;-3.61;100.00;96508.06;5011759;28;20021;-63
2022/01/16 01:04:32;;;;;;;39.20;25.95;;;;;;;-3.66;100.00;96495.28;5005805;28;20018;-63
2022/01/16 01:06:57;;;;;;;30.98;21.85;;;;;;;-3.65;100.00;96480.69;5011504;28;20028;-62
2022/01/16 01:09:24;;;;;;;28.48;19.50;;;;;;;-3.58;100.00;96497.69;5011899;28;20029;-63
2022/01/16 01:11:50;;;;;;;29.75;20.05;;;;;;;-3.47;100.00;96482.00;5011573;28;20985;-63
2022/01/16 01:16:52;;;;;;;32.20;21.90;;;;;;;-3.49;100.00;96543.81;5011480;28;20641;-63
2022/01/16 01:19:22;;;;;;;32.88;20.35;;;;;;;-3.54;100.00;96562.81;5007614;28;20025;-63
2022/01/16 01:21:47;;;;;;;33.22;20.90;;;;;;;-3.60;100.00;96566.38;5011182;28;20030;-62
2022/01/16 01:24:13;;;;;;;29.27;20.23;;;;;;;-3.70;100.00;96576.03;5011496;28;20029;-62
2022/01/16 01:26:49;;;;;;;32.83;19.67;;;;;;;-3.75;100.00;96575.28;5011382;28;20025;-63
2022/01/16 01:29:18;;;;;;;28.73;19.48;;;;;;;-3.75;100.00;96594.16;5011427;28;20032;-62
2022/01/16 01:31:43;;;;;;;22.63;16.25;;;;;;;-3.73;100.00;96604.41;5007301;28;20052;-62
2022/01/16 01:34:09;;;;;;;23.35;15.65;;;;;;;-3.70;100.00;96596.63;5011819;28;20481;-63
2022/01/16 01:36:34;;;;;;;24.67;16.55;;;;;;;-3.68;100.00;96578.56;5011406;28;20033;-63
2022/01/16 01:38:59;;;;;;;23.85;18.83;;;;;;;-3.65;100.00;96587.06;5011648;28;20026;-63
2022/01/16 01:41:28;;;;;;;33.00;22.35;;;;;;;-3.65;100.00;96601.66;5011184;28;20037;-63
2022/01/16 01:52:06;;;;;;;22.75;16.77;;;;;;;-3.78;100.00;96624.22;5011094;28;20552;-63
2022/01/16 01:54:31;;;;;;;31.75;21.45;;;;;;;-3.76;100.00;96627.63;5011060;28;20030;-62
2022/01/16 01:56:58;;;;;;;40.80;27.40;;;;;;;-3.68;100.00;96632.63;5011214;28;20029;-63
2022/01/16 01:59:23;;;;;;;30.75;23.15;;;;;;;-3.56;100.00;96632.38;5011155;28;20504;-62
2022/01/16 02:01:49;;;;;;;37.38;23.98;;;;;;;-3.54;100.00;96625.47;5010885;28;20030;-63
2022/01/16 02:04:14;;;;;;;30.70;20.63;;;;;;;-3.62;100.00;96635.91;5010995;28;20456;-63
2022/01/16 02:06:40;;;;;;;24.95;16.98;;;;;;;-3.68;100.00;96632.63;5010847;28;20025;-63
2022/01/16 02:09:06;;;;;;;21.85;15.48;;;;;;;-3.71;100.00;96630.97;5011082;28;20022;-63
2022/01/16 02:11:33;;;;;;;18.73;13.93;;;;;;;-3.71;100.00;96627.53;5011296;28;20135;-62
2022/01/16 02:14:08;;;;;;;22.42;16.02;;;;;;;-3.70;100.00;96616.34;5009827;28;20084;-63
2022/01/16 02:28:14;;;;;;;28.23;19.27;;;;;;;-3.85;100.00;96595.22;5011175;28;20049;-63
2022/01/16 02:35:59;;;;;;;30.88;21.05;;;;;;;-3.93;100.00;96604.81;5011253;28;20076;-62
2022/01/16 02:38:24;;;;;;;31.85;19.70;;;;;;;-3.94;100.00;96605.69;5010606;28;20120;-63
2022/01/16 02:41:02;;;;;;;36.95;22.17;;;;;;;-3.96;100.00;96615.16;5011858;28;20469;-63
2022/01/16 02:43:33;;;;;;;24.98;18.42;;;;;;;-3.93;100.00;96615.97;5014285;28;20489;-63
2022/01/16 02:48:44;;;;;;;30.40;18.83;;;;;;;-3.78;100.00;96611.38;5014362;28;20037;-63
2022/01/16 02:51:10;;;;;;;28.50;18.75;;;;;;;-3.67;100.00;96616.28;5014303;28;20072;-62
2022/01/16 02:53:35;;;;;;;42.88;24.13;;;;;;;-3.63;100.00;96607.66;5014301;28;20030;-63
2022/01/16 02:56:00;;;;;;;41.95;24.23;;;;;;;-3.68;100.00;96612.03;5014465;28;20014;-62
2022/01/16 02:58:26;;;;;;;30.80;18.67;;;;;;;-3.79;100.00;96601.94;5012913;28;20026;-63
2022/01/16 03:00:51;;;;;;;30.77;18.50;;;;;;;-3.88;100.00;96597.84;5013548;28;20057;-63
2022/01/16 03:03:17;;;;;;;25.15;18.27;;;;;;;-3.93;100.00;96603.09;5014241;28;20445;-62
2022/01/16 03:05:42;;;;;;;24.50;17.05;;;;;;;-3.96;100.00;96599.72;5014037;28;20026;-63
2022/01/16 03:08:08;;;;;;;24.33;15.45;;;;;;;-3.96;100.00;96594.59;5013765;28;20038;-62
2022/01/16 03:10:52;;;;;;;22.15;15.05;;;;;;;-3.77;100.00;96601.06;5013672;28;20033;-63
2022/01/16 03:13:20;;;;;;;23.33;14.02;;;;;;;-3.80;100.00;96601.13;5013965;28;20457;-63
2022/01/16 03:15:47;;;;;;;23.77;15.15;;;;;;;-3.81;100.00;96593.41;5014113;28;20121;-63
2022/01/16 03:23:24;;;;;;;23.50;15.25;;;;;;;-3.70;100.00;96581.19;5014607;28;20029;-62
2022/01/16 03:25:51;;;;;;;21.38;15.18;;;;;;;-3.74;100.00;96589.84;5013921;28;20022;-63
2022/01/16 03:28:17;;;;;;;20.63;14.43;;;;;;;-3.82;100.00;96592.59;5013341;28;20519;-63
2022/01/16 03:30:43;;;;;;;20.92;13.40;;;;;;;-3.89;100.00;96581.56;5013118;28;20022;-63
2022/01/16 03:33:09;;;;;;;16.10;13.63;;;;;;;-3.94;100.00;96585.97;5013520;28;20048;-63
2022/01/16 03:35:34;;;;;;;18.92;13.40;;;;;;;-3.96;100.00;96587.72;5013498;28;20080;-63
2022/01/16 03:38:00;;;;;;;18.27;12.73;;;;;;;-3.95;100.00;96596.28;5013550;28;20080;-63
2022/01/16 03:40:26;;;;;;;17.30;12.35;;;;;;;-3.98;100.00;96591.19;5013233;28;20580;-63
2022/01/16 03:42:51;;;;;;;15.38;11.60;;;;;;;-4.06;100.00;96592.22;5013357;28;20080;-63
2022/01/16 03:45:17;;;;;;;13.90;11.20;;;;;;;-4.12;100.00;96589.72;5013328;28;20025;-63
2022/01/16 03:47:43;;;;;;;20.13;12.23;;;;;;;-4.13;100.00;96588.03;5013700;28;20064;-62
2022/01/16 03:50:10;;;;;;;15.30;11.88;;;;;;;-4.09;100.00;96589.69;5012910;28;20033;-63
2022/01/16 03:52:36;;;;;;;14.88;11.93;;;;;;;-4.06;100.00;96594.78;5011917;28;20084;-63
2022/01/16 03:55:03;;;;;;;14.65;11.43;;;;;;;-4.10;100.00;96605.97;5013101;28;20018;-63
2022/01/16 03:57:29;;;;;;;16.45;11.57;;;;;;;-4.11;100.00;96611.19;5012981;28;20064;-63
2022/01/16 03:59:54;;;;;;;13.98;10.15;;;;;;;-4.11;100.00;96612.00;5012052;28;20022;-63
2022/01/16 04:02:20;;;;;;;19.42;12.07;;;;;;;-4.07;100.00;96621.38;5013076;28;20092;-63
2022/01/16 04:04:45;;;;;;;16.10;12.85;;;;;;;-4.09;100.00;96617.13;5012688;28;20020;-63
2022/01/16 04:07:16;;;;;;;16.20;11.95;;;;;;;-4.13;100.00;96613.75;5012928;28;20113;-63
2022/01/16 04:09:41;;;;;;;16.45;12.73;;;;;;;-3.81;100.00;96614.88;5012843;28;20040;-63
2022/01/16 04:12:09;;;;;;;17.45;13.05;;;;;;;-3.80;100.00;96621.72;5012711;28;20026;-62
2022/01/16 04:17:15;;;;;;;19.23;12.57;;;;;;;-3.96;100.00;96613.47;5012550;28;20117;-63
2022/01/16 04:19:40;;;;;;;15.55;12.60;;;;;;;-4.05;100.00;96611.03;5012838;28;20029;-63
2022/01/16 04:22:06;;;;;;;15.77;11.90;;;;;;;-4.10;100.00;96611.13;5012495;28;20018;-63
2022/01/16 04:24:33;;;;;;;12.68;10.85;;;;;;;-4.13;100.00;96592.34;5012462;28;20383;-63
2022/01/16 04:26:59;;;;;;;12.73;10.45;;;;;;;-4.12;100.00;96588.91;5012560;28;20056;-63
2022/01/16 04:29:24;;;;;;;16.63;12.88;;;;;;;-4.10;100.00;96593.13;5012483;28;20038;-62
2022/01/16 04:31:50;;;;;;;13.77;11.60;;;;;;;-4.11;100.00;96593.16;5012408;28;20049;-62
2022/01/16 04:34:15;;;;;;;14.70;11.40;;;;;;;-4.16;100.00;96595.81;5012652;28;20037;-62
2022/01/16 04:36:40;;;;;;;15.55;11.80;;;;;;;-4.16;100.00;96598.41;5010917;28;20065;-62
2022/01/16 04:39:14;;;;;;;12.85;9.35;;;;;;;-4.21;100.00;96595.06;5012353;28;20022;-62
2022/01/16 04:44:23;;;;;;;11.50;8.85;;;;;;;-4.19;100.00;96595.88;5008804;28;20037;-62
2022/01/16 04:46:49;;;;;;;12.30;9.32;;;;;;;-4.13;100.00;96588.03;5017108;28;20033;-62
2022/01/16 04:49:14;;;;;;;11.60;9.40;;;;;;;-4.12;100.00;96587.16;5012113;28;20052;-62
2022/01/16 04:51:39;;;;;;;11.38;9.73;;;;;;;-4.12;100.00;96594.06;5011926;28;20065;-61
2022/01/16 04:54:05;;;;;;;11.90;9.80;;;;;;;-4.14;100.00;96594.06;5011962;28;20029;-62
2022/01/16 04:56:31;;;;;;;11.02;9.18;;;;;;;-4.09;100.00;96600.00;5011972;28;20469;-62
2022/01/16 04:58:57;;;;;;;11.95;9.75;;;;;;;-4.04;100.00;96607.59;5011824;28;20030;-62
2022/01/16 05:01:23;;;;;;;12.25;9.02;;;;;;;-4.03;100.00;96604.16;5011968;28;20029;-62
2022/01/16 05:03:49;;;;;;;15.02;11.57;;;;;;;-3.95;100.00;96607.44;5011426;28;20034;-62
2022/01/16 05:06:15;;;;;;;15.13;10.52;;;;;;;-3.91;100.00;96613.34;5011659;28;20464;-62
2022/01/16 05:08:40;;;;;;;13.13;10.85;;;;;;;-3.87;100.00;96609.81;5011690;28;20026;-62
2022/01/16 05:11:08;;;;;;;14.45;11.32;;;;;;;-3.87;100.00;96614.97;5011634;28;20051;-62
2022/01/16 05:18:44;;;;;;;13.65;11.85;;;;;;;-4.05;100.00;96640.22;5011364;28;20072;-62
2022/01/16 05:21:10;;;;;;;16.17;12.10;;;;;;;-3.85;100.00;96644.13;5010305;28;20030;-62
2022/01/16 05:23:36;;;;;;;14.68;11.18;;;;;;;-3.96;100.00;96649.47;5010177;28;20049;-62
2022/01/16 05:26:03;;;;;;;14.90;11.82;;;;;;;-4.03;100.00;96648.75;5011365;28;20026;-62
2022/01/16 05:28:29;;;;;;;17.83;13.98;;;;;;;-4.07;100.00;96659.97;5011064;28;20034;-61
2022/01/16 05:30:54;;;;;;;19.13;14.57;;;;;;;-4.05;100.00;96668.50;5010835;28;20079;-61
2022/01/16 05:33:19;;;;;;;15.43;12.23;;;;;;;-3.97;100.00;96670.94;5011332;28;20030;-62
2022/01/16 05:35:45;;;;;;;20.75;14.73;;;;;;;-4.09;100.00;96681.44;4993579;28;20026;-62
2022/01/16 05:38:11;;;;;;;22.00;13.90;;;;;;;-4.15;100.00;96686.72;5011310;28;20029;-61
2022/01/16 05:40:37;;;;;;;16.58;11.98;;;;;;;-4.26;100.00;96685.16;5011033;28;20030;-62
2022/01/16 05:43:03;;;;;;;15.88;11.90;;;;;;;-4.30;100.00;96691.22;5009559;28;20026;-61
2022/01/16 05:45:29;;;;;;;18.17;12.05;;;;;;;-4.34;100.00;96694.75;5011079;28;20029;-62
2022/01/16 05:47:55;;;;;;;14.93;11.50;;;;;;;-4.36;100.00;96694.75;5011116;28;20072;-62
2022/01/16 05:50:21;;;;;;;12.32;10.95;;;;;;;-4.39;100.00;96705.09;5011126;28;20474;-62
2022/01/16 05:52:47;;;;;;;14.20;11.20;;;;;;;-4.42;100.00;96709.44;5011049;28;20386;-62
2022/01/16 05:55:13;;;;;;;12.05;10.70;;;;;;;-4.44;100.00;96727.47;5011218;28;20037;-62
2022/01/16 05:57:39;;;;;;;16.05;11.18;;;;;;;-4.49;100.00;96727.53;5010938;28;20034;-62
2022/01/16 06:00:05;;;;;;;14.07;10.93;;;;;;;-4.50;100.00;96730.16;5010715;28;20084;-62
2022/01/16 06:02:31;;;;;;;15.45;13.85;;;;;;;-4.52;100.00;96729.31;5010524;28;20489;-62
2022/01/16 06:04:56;;;;;;;15.02;13.48;;;;;;;-4.58;100.00;96742.25;5010978;28;20017;-61
2022/01/16 06:07:22;;;;;;;19.88;13.90;;;;;;;-4.61;100.00;96736.28;5010702;28;20022;-62
2022/01/16 06:09:47;;;;;;;16.40;14.68;;;;;;;-4.61;100.00;96738.84;5010524;28;20504;-62
2022/01/16 06:12:12;;;;;;;16.10;13.55;;;;;;;-4.59;100.00;96738.84;5011059;28;20528;-62
2022/01/16 06:14:38;;;;;;;16.80;15.07;;;;;;;-4.58;100.00;96740.53;5011242;28;20022;-62
2022/01/16 06:17:04;;;;;;;21.77;17.45;;;;;;;-4.55;100.00;96739.63;5014317;28;20133;-62
2022/01/16 06:19:29;;;;;;;23.77;18.55;;;;;;;-4.56;100.00;96735.34;5015392;28;20026;-62
2022/01/16 06:21:55;;;;;;;20.75;16.30;;;;;;;-4.62;100.00;96739.72;5014813;28;20535;-61
2022/01/16 06:24:21;;;;;;;18.60;15.70;;;;;;;-4.66;100.00;96738.09;5014825;28;20034;-62
2022/01/16 06:26:49;;;;;;;22.88;16.33;;;;;;;-4.64;100.00;96741.47;5014745;28;20034;-61
2022/01/16 06:29:15;;;;;;;24.33;17.70;;;;;;;-4.65;100.00;96757.78;5014868;28;20029;-61
2022/01/16 06:31:41;;;;;;;20.83;18.02;;;;;;;-4.66;100.00;96752.63;5015302;28;20516;-62
2022/01/16 06:34:06;;;;;;;18.70;16.33;;;;;;;-4.67;100.00;96768.94;5014532;28;20105;-61
2022/01/16 06:36:33;;;;;;;19.02;14.23;;;;;;;-4.72;100.00;96766.44;5014335;28;20018;-62
2022/01/16 06:38:58;;;;;;;16.00;13.80;;;;;;;-4.72;100.00;96766.44;5014488;28;20108;-62
2022/01/16 06:41:24;;;;;;;19.00;15.50;;;;;;;-4.69;100.00;96778.38;5014353;28;20033;-61
2022/01/16 06:43:49;;;;;;;19.33;17.13;;;;;;;-4.70;100.00;96769.84;5014281;28;20433;-62
2022/01/16 06:46:14;;;;;;;18.33;15.57;;;;;;;-4.65;100.00;96768.06;5014337;28;20053;-61
2022/01/16 06:48:40;;;;;;;19.15;15.02;;;;;;;-4.72;100.00;96766.44;5014221;28;20029;-61
2022/01/16 06:51:06;;;;;;;17.25;14.60;;;;;;;-4.73;100.00;96766.47;5013182;28;20485;-61
2022/01/16 06:53:32;;;;;;;18.52;15.23;;;;;;;-4.70;100.00;96768.97;5013515;28;20037;-61
2022/01/16 06:55:58;;;;;;;16.30;14.45;;;;;;;-4.71;100.00;96781.00;5014186;28;20037;-61
2022/01/16 06:58:23;;;;;;;17.85;12.98;;;;;;;-4.73;100.00;96781.88;5014213;28;20029;-61
2022/01/16 07:00:48;;;;;;;14.75;13.25;;;;;;;-4.74;100.00;96783.63;5012979;28;20120;-61
2022/01/16 07:03:14;;;;;;;18.45;14.85;;;;;;;-4.76;100.00;96793.91;5012852;28;20068;-61
2022/01/16 07:05:41;;;;;;;15.60;14.05;;;;;;;-4.72;100.00;96805.00;5014012;28;20403;-61
2022/01/16 07:08:06;;;;;;;15.98;13.68;;;;;;;-4.62;100.00;96811.69;5013924;28;20501;-61
2022/01/16 07:10:32;;;;;;;17.85;15.52;;;;;;;-4.53;100.00;96810.72;5013868;28;20065;-61
2022/01/16 07:12:57;;;;;;;24.05;20.83;;;;;;;-4.25;100.00;96810.28;5013126;28;20034;-61
2022/01/16 07:15:23;;;;;;;19.70;17.65;;;;;;;-4.18;100.00;96814.50;5014454;28;20041;-61
2022/01/16 07:17:48;;;;;;;18.92;15.07;;;;;;;-4.27;100.00;96800.94;5013731;28;20477;-61
2022/01/16 07:20:15;;;;;;;16.80;14.70;;;;;;;-4.35;100.00;96809.59;5014212;28;20072;-61
2022/01/16 07:22:40;;;;;;;22.77;16.30;;;;;;;-4.40;100.00;96810.56;5012306;28;20034;-61
2022/01/16 07:25:06;;;;;;;17.08;15.38;;;;;;;-4.40;100.00;96801.09;5013684;28;20391;-61
2022/01/16 07:27:31;;;;;;;18.02;14.90;;;;;;;-4.42;100.00;96797.69;5021928;28;20378;-62
2022/01/16 07:29:57;;;;;;;20.67;17.70;;;;;;;-4.46;100.00;96806.34;5013452;28;20049;-61
2022/01/16 07:32:23;;;;;;;25.88;18.13;;;;;;;-4.46;100.00;96802.03;5013559;28;20060;-63
2022/01/16 07:34:48;;;;;;;28.58;19.50;;;;;;;-4.47;100.00;96804.66;5013686;28;20116;-61
2022/01/16 07:37:13;;;;;;;22.30;18.67;;;;;;;-4.47;100.00;96810.63;5013757;28;20037;-62
2022/01/16 07:39:39;;;;;;;23.15;19.17;;;;;;;-4.43;100.00;96815.72;5011932;28;20065;-62
2022/01/16 07:42:05;;;;;;;25.75;18.67;;;;;;;-4.27;100.00;96806.06;5013663;28;20033;-63
2022/01/16 07:44:31;;;;;;;22.38;18.83;;;;;;;-4.24;100.00;96811.16;5013197;28;20034;-62
2022/01/16 07:46:56;;;;;;;24.85;19.02;;;;;;;-4.25;100.00;96809.47;5011077;28;20034;-61
2022/01/16 07:49:22;;;;;;;21.50;18.80;;;;;;;-4.27;100.00;96816.34;5013218;28;20034;-61
2022/01/16 07:51:47;;;;;;;27.45;21.98;;;;;;;-4.34;100.00;96803.56;5013022;28;20620;-61
2022/01/16 07:54:13;;;;;;;28.45;24.67;;;;;;;-4.40;100.00;96807.97;5012892;28;20116;-61
2022/01/16 07:56:38;;;;;;;29.02;25.08;;;;;;;-4.19;100.00;96817.94;5011183;28;20038;-60
2022/01/16 07:59:04;;;;;;;25.08;21.48;;;;;;;-4.17;100.00;96817.91;5011763;28;20080;-61
2022/01/16 08:01:29;;;;;;;27.70;23.02;;;;;;;-4.20;100.00;96812.81;5011958;28;20057;-61
2022/01/16 08:03:55;;;;;;;26.50;19.95;;;;;;;-4.22;100.00;96810.25;5011902;28;20080;-60
2022/01/16 08:06:20;;;;;;;24.55;19.75;;;;;;;-4.17;100.00;96812.75;5011085;28;20552;-61
2022/01/16 08:08:45;;;;;;;25.95;20.73;;;;;;;-4.13;100.00;96818.72;5010669;28;20028;-61
2022/01/16 08:11:11;;;;;;;25.77;18.50;;;;;;;-4.06;100.00;96823.75;5010926;28;20036;-61
2022/01/16 08:13:37;;;;;;;22.42;17.42;;;;;;;-4.03;100.00;96833.09;5010068;28;20395;-61
2022/01/16 08:16:04;;;;;;;22.85;18.48;;;;;;;-4.03;100.00;96831.41;5010225;28;20129;-61
2022/01/16 08:18:30;;;;;;;23.63;20.00;;;;;;;-4.02;100.00;96829.66;5009489;28;20061;-61
2022/01/16 08:20:55;;;;;;;27.95;23.75;;;;;;;-4.06;100.00;96821.16;5011547;28;20552;-59
2022/01/16 08:23:20;;;;;;;30.35;26.95;;;;;;;-4.05;100.00;96817.72;5012130;28;20454;-62
2022/01/16 08:25:46;;;;;;;37.88;29.65;;;;;;;-3.96;100.00;96821.00;5010129;28;20021;-61
2022/01/16 08:28:11;;;;;;;94.97;51.15;;;;;;;-3.92;100.00;96817.50;5010786;28;20149;-61
2022/01/16 08:30:37;;;;;;;65.65;38.60;;;;;;;-3.85;100.00;96818.25;5011191;28;20083;-61
2022/01/16 08:33:02;;;;;;;62.47;37.08;;;;;;;-3.85;100.00;96819.13;5012352;28;20034;-61
2022/01/16 08:35:28;;;;;;;63.95;34.85;;;;;;;-3.85;100.00;96820.81;5009896;28;20033;-60
2022/01/16 08:37:53;;;;;;;50.70;32.38;;;;;;;-3.90;100.00;96833.75;5012152;28;20065;-60
2022/01/16 08:40:19;;;;;;;49.55;33.55;;;;;;;-3.83;100.00;96831.94;5009677;28;20065;-52
2022/01/16 08:42:45;;;;;;;42.85;33.00;;;;;;;-3.64;100.00;96837.63;5010635;28;20037;-49
2022/01/16 08:45:10;;;;;;;35.42;29.58;;;;;;;-3.65;100.00;96843.63;5006507;28;20308;-52
2022/01/16 08:47:36;;;;;;;39.58;28.00;;;;;;;-3.66;100.00;96841.94;5009685;28;20030;-47
2022/01/16 08:50:04;;;;;;;28.65;23.90;;;;;;;-3.52;100.00;96839.97;5011358;28;20041;-49
2022/01/16 08:52:29;;;;;;;26.40;21.45;;;;;;;-3.50;100.00;96832.25;5009119;28;20029;-52
2022/01/16 08:54:54;;;;;;;19.42;15.88;;;;;;;-3.31;100.00;96831.03;5009316;28;20029;-48
2022/01/16 08:57:20;;;;;;;20.73;18.38;;;;;;;-3.38;100.00;96838.88;5008010;28;20037;-49
2022/01/16 08:59:45;;;;;;;26.85;22.15;;;;;;;-3.46;100.00;96832.13;5009478;28;20217;-49
2022/01/16 09:02:11;;;;;;;37.10;29.88;;;;;;;-3.56;100.00;96842.63;5011869;28;20022;-52
2022/01/16 09:04:36;;;;;;;38.60;32.42;;;;;;;-3.57;100.00;96846.94;5012159;28;20026;-53
2022/01/16 09:07:01;;;;;;;36.45;29.52;;;;;;;-3.59;100.00;96843.53;5004600;28;20033;-54
2022/01/16 09:09:27;;;;;;;35.15;28.10;;;;;;;-3.61;100.00;96842.72;5011946;28;20060;-53
2022/01/16 09:11:52;;;;;;;32.33;28.48;;;;;;;-3.61;100.00;96838.41;5010576;28;20401;-55
2022/01/16 09:14:18;;;;;;;58.10;40.78;;;;;;;-3.60;100.00;96841.84;5012063;28;20116;-53
2022/01/16 09:16:43;;;;;;;46.42;35.20;;;;;;;-3.58;100.00;96850.41;5011096;28;20050;-54
2022/01/16 09:19:08;;;;;;;52.50;35.70;;;;;;;-3.55;100.00;96847.75;5011880;28;20493;-52
2022/01/16 09:21:34;;;;;;;73.13;48.60;;;;;;;-3.52;100.00;96859.75;5011160;28;20038;-53
2022/01/16 09:24:00;;;;;;;63.92;44.65;;;;;;;-3.58;100.00;96860.69;5011387;28;20022;-52
2022/01/16 09:26:26;;;;;;;60.90;42.28;;;;;;;-3.62;100.00;96856.47;5010228;28;20037;-54
2022/01/16 09:28:53;;;;;;;50.40;39.75;;;;;;;-3.39;100.00;96862.94;5010751;28;20018;-53
2022/01/16 09:31:18;;;;;;;53.05;38.25;;;;;;;-2.68;100.00;96869.31;5008635;28;20032;-52
2022/01/16 09:33:44;;;;;;;82.72;59.67;;;;;;;-2.03;100.00;96874.78;5009700;28;20452;-50
2022/01/16 09:36:09;;;;;;;124.90;85.68;;;;;;;-1.54;100.00;96872.75;5008190;28;20026;-52
2022/01/16 09:38:36;;;;;;;61.45;49.40;;;;;;;-1.11;99.78;96875.94;5010514;28;20045;-49
2022/01/16 09:41:02;;;;;;;62.95;44.70;;;;;;;-0.76;96.93;96883.66;5009602;28;20216;-53
2022/01/16 09:43:28;;;;;;;41.75;32.17;;;;;;;-0.40;96.83;96883.47;5009805;28;20244;-52
2022/01/16 09:45:53;;;;;;;34.03;26.08;;;;;;;-0.11;95.88;96888.69;5010493;28;20026;-51
2022/01/16 09:48:19;;;;;;;32.65;25.00;;;;;;;0.23;96.04;96887.63;5009694;28;20417;-49
2022/01/16 09:50:45;;;;;;;40.50;32.67;;;;;;;0.38;94.40;96894.06;5009228;28;20049;-51
2022/01/16 09:53:12;;;;;;;38.30;27.52;;;;;;;0.67;95.65;96887.06;5011287;28;20025;-53
2022/01/16 09:55:37;;;;;;;29.60;25.20;;;;;;;0.72;91.35;96895.53;5011065;28;20026;-50
2022/01/16 09:58:03;;;;;;;34.33;27.90;;;;;;;0.80;91.42;96893.53;5010611;28;20105;-51
2022/01/16 10:00:28;;;;;;;31.95;24.50;;;;;;;0.97;92.02;96895.53;5010897;28;20060;-54
2022/01/16 10:02:54;;;;;;;32.72;24.63;;;;;;;1.13;92.62;96898.44;5007724;28;20168;-54
2022/01/16 10:05:37;;;;;;;38.75;26.20;;;;;;;1.19;91.00;96899.97;5009141;28;20041;-54
2022/01/16 10:08:11;;;;;;;32.78;24.35;;;;;;;1.39;93.11;96896.66;5009886;28;20045;-54
2022/01/16 10:10:39;;;;;;;28.15;22.45;;;;;;;1.56;89.97;96900.41;5009560;28;20037;-54
2022/01/16 10:13:23;;;;;;;18.60;15.18;;;;;;;1.84;91.09;96897.63;5007470;28;20549;-52
2022/01/16 10:15:56;;;;;;;18.95;16.48;;;;;;;1.79;88.44;96902.16;5008227;28;20060;-54
2022/01/16 10:18:41;;;;;;;21.40;17.73;;;;;;;1.79;85.16;96894.34;5009552;28;20041;-55
2022/01/16 10:21:08;;;;;;;13.32;12.02;;;;;;;1.54;87.68;96890.06;5008916;28;20084;-55
2022/01/16 10:23:42;;;;;;;13.10;10.13;;;;;;;1.57;88.19;96884.78;5008719;28;20568;-55
2022/01/16 10:26:19;;;;;;;12.10;11.00;;;;;;;1.87;87.50;96888.84;5008111;28;20014;-56
2022/01/16 10:28:44;;;;;;;14.80;12.32;;;;;;;1.81;87.36;96884.75;5010484;28;20034;-57
2022/01/16 10:31:18;;;;;;;11.70;10.52;;;;;;;1.87;87.43;96888.84;5010583;28;20022;-56
2022/01/16 10:33:43;;;;;;;10.65;9.63;;;;;;;1.99;84.51;96878.00;5010684;28;20026;-55
2022/01/16 10:36:08;;;;;;;9.00;7.78;;;;;;;2.11;83.75;96883.63;5010445;28;20026;-55
2022/01/16 10:38:34;;;;;;;11.05;9.30;;;;;;;2.34;82.29;96882.69;5010601;28;20552;-55
2022/01/16 10:41:00;;;;;;;11.60;10.48;;;;;;;2.66;82.92;96872.75;5009089;28;20715;-55
2022/01/16 10:43:44;;;;;;;12.40;11.20;;;;;;;2.84;81.34;96884.13;5010003;28;20052;-56
2022/01/16 10:46:12;;;;;;;12.50;11.20;;;;;;;2.84;81.80;96883.28;5007663;28;20028;-54
2022/01/16 10:48:38;;;;;;;14.80;12.63;;;;;;;2.81;80.66;96892.06;5009194;28;20084;-57
2022/01/16 10:51:03;;;;;;;15.48;13.80;;;;;;;3.02;81.51;96889.47;5009801;28;20046;-56
2022/01/16 10:53:31;;;;;;;15.32;12.70;;;;;;;2.95;80.16;96880.22;5010708;28;20110;-55
2022/01/16 10:56:03;;;;;;;12.80;11.45;;;;;;;3.12;78.96;96877.72;5009881;28;20100;-52
2022/01/16 10:58:36;;;;;;;11.85;10.10;;;;;;;3.21;78.64;96878.25;5009308;28;20037;-53
2022/01/16 11:01:08;;;;;;;14.55;11.85;;;;;;;3.36;79.90;96880.16;5007694;28;20038;-55
2022/01/16 11:03:39;;;;;;;13.55;11.43;;;;;;;3.72;79.05;96868.16;5012229;28;20037;-53
2022/01/16 11:06:05;;;;;;;12.43;10.75;;;;;;;4.00;77.08;96864.28;5009278;28;20048;-54
2022/01/16 11:08:31;;;;;;;10.85;9.75;;;;;;;4.31;75.67;96862.81;5014046;28;20524;-54
2022/01/16 11:10:59;;;;;;;12.32;11.13;;;;;;;4.41;74.27;96858.00;5010726;28;20025;-54
2022/01/16 11:13:30;;;;;;;9.88;8.88;;;;;;;4.58;73.21;96855.41;5011499;28;20057;-53
2022/01/16 11:15:59;;;;;;;9.35;8.35;;;;;;;4.69;71.84;96857.47;5010633;28;20045;-54
2022/01/16 11:18:26;;;;;;;7.13;6.43;;;;;;;4.83;70.42;96859.38;5011678;28;20988;-52
2022/01/16 11:21:07;;;;;;;6.90;6.20;;;;;;;4.92;70.15;96859.81;5011471;28;20049;-53
2022/01/16 11:23:47;;;;;;;6.72;6.13;;;;;;;4.96;67.61;96864.81;5011589;28;20044;-54
2022/01/16 11:26:13;;;;;;;8.57;7.55;;;;;;;5.05;71.07;96862.66;5011559;28;20028;-52
2022/01/16 11:28:39;;;;;;;7.85;7.15;;;;;;;5.09;70.74;96859.81;5012603;28;20038;-53
2022/01/16 11:31:07;;;;;;;7.88;7.18;;;;;;;5.27;71.48;96858.00;5013603;28;20063;-52
2022/01/16 11:33:34;;;;;;;7.25;6.43;;;;;;;5.47;68.99;96855.28;5012823;28;20029;-56
2022/01/16 11:36:13;;;;;;;6.45;5.85;;;;;;;5.68;68.31;96854.13;5011563;28;20116;-52
2022/01/16 11:38:51;;;;;;;7.55;6.80;;;;;;;5.98;65.90;96853.38;5012808;28;20108;-55
2022/01/16 11:41:31;;;;;;;6.32;5.68;;;;;;;6.29;65.50;96851.69;5012285;28;20038;-54
2022/01/16 11:43:58;;;;;;;5.82;5.32;;;;;;;6.59;64.83;96856.09;5013284;28;20030;-50
2022/01/16 11:46:26;;;;;;;6.03;5.35;;;;;;;6.74;64.94;96856.13;5012417;28;20029;-54
2022/01/16 11:49:01;;;;;;;4.90;4.50;;;;;;;6.72;61.99;96847.53;5008232;28;20110;-55
2022/01/16 11:51:39;;;;;;;4.38;4.05;;;;;;;6.88;59.84;96848.31;5012529;28;20030;-50
2022/01/16 11:54:19;;;;;;;5.85;3.53;;;;;;;7.13;59.72;96854.72;5013121;28;20084;-53
2022/01/16 11:56:45;;;;;;;3.65;3.35;;;;;;;7.11;59.23;96843.50;5013196;28;20028;-53
2022/01/16 11:59:24;;;;;;;4.47;3.30;;;;;;;7.01;59.47;96844.97;5013170;28;20093;-51
2022/01/16 12:01:57;;;;;;;4.53;4.13;;;;;;;7.00;58.52;96841.50;5009991;28;20501;-53